createdAt,value
2018-06-28T00:01:21.306Z,95890.05
2018-06-28T00:03:50.352Z,95890.21
2018-06-28T00:06:19.409Z,95887.77
2018-06-28T00:08:48.505Z,95884.38
2018-06-28T00:11:17.558Z,95885.37
2018-06-28T00:13:46.577Z,95893.84
2018-06-28T00:16:15.754Z,95888.97
2018-06-28T00:18:44.809Z,95888.02
2018-06-28T00:23:49.561Z,95891.12
2018-06-28T00:28:54.313Z,95880.28
2018-06-28T00:33:59.069Z,95875.00
2018-06-28T00:36:28.138Z,95878.25
2018-06-28T00:39:08.289Z,95881.48
2018-06-28T00:41:38.369Z,95880.20
2018-06-28T00:46:43.241Z,95877.14
2018-06-28T00:51:48.109Z,95872.52
2018-06-28T00:54:17.149Z,95867.23
2018-06-28T00:56:46.216Z,95863.16
2018-06-28T00:59:16.248Z,95870.16
2018-06-28T01:01:46.299Z,95866.80
2018-06-28T01:04:15.341Z,95865.36
2018-06-28T01:06:45.463Z,95855.13
2018-06-28T01:09:14.501Z,95856.95
2018-06-28T01:14:19.245Z,95852.27
2018-06-28T01:19:23.997Z,95844.50
2018-06-28T01:21:53.056Z,95840.07
2018-06-28T01:24:22.169Z,95834.39
2018-06-28T01:26:51.228Z,95838.78
2018-06-28T01:29:20.265Z,95839.20
2018-06-28T01:31:49.318Z,95849.31
2018-06-28T01:34:19.296Z,95843.30
2018-06-28T01:36:48.356Z,95841.97
2018-06-28T01:39:17.405Z,95844.32
2018-06-28T01:41:46.458Z,95845.21
2018-06-28T01:44:16.509Z,95840.08
2018-06-28T01:46:45.613Z,95837.18
2018-06-28T01:49:15.617Z,95838.17
2018-06-28T01:51:50.247Z,95833.98
2018-06-28T01:54:21.305Z,95836.30
2018-06-28T01:56:51.277Z,95831.66
2018-06-28T02:01:56.096Z,95821.67
2018-06-28T02:04:25.193Z,95816.67
2018-06-28T02:06:57.865Z,95818.97
2018-06-28T02:09:26.929Z,95818.85
2018-06-28T02:14:10.409Z,95814.05
2018-06-28T02:16:39.467Z,95816.52
2018-06-28T02:21:44.278Z,95811.56
2018-06-28T02:24:13.382Z,95813.84
2018-06-28T02:26:42.472Z,95809.27
2018-06-28T02:29:11.514Z,95810.26
2018-06-28T02:34:16.333Z,95813.81
2018-06-28T02:36:45.413Z,95815.13
2018-06-28T02:39:18.215Z,95812.72
2018-06-28T02:44:22.970Z,95813.70
2018-06-28T02:46:52.052Z,95811.51
2018-06-28T02:49:21.094Z,95811.00
2018-06-28T02:54:25.942Z,95809.98
2018-06-28T02:56:55.921Z,95809.57
2018-06-28T02:59:24.999Z,95803.88
2018-06-28T03:01:54.017Z,95812.98
2018-06-28T03:04:26.112Z,95810.06
2018-06-28T03:06:55.374Z,95808.41
2018-06-28T03:09:24.535Z,95811.09
2018-06-28T03:11:54.489Z,95820.79
2018-06-28T03:14:23.548Z,95821.10
2018-06-28T03:16:53.517Z,95818.58
2018-06-28T03:19:22.566Z,95820.91
2018-06-28T03:21:51.630Z,95822.13
2018-06-28T03:24:21.827Z,95819.17
2018-06-28T03:26:52.898Z,95817.30
2018-06-28T03:31:57.665Z,95822.00
2018-06-28T03:34:30.929Z,95824.09
2018-06-28T03:37:00.960Z,95827.02
2018-06-28T03:39:30.976Z,95822.45
2018-06-28T03:42:02.017Z,95820.54
2018-06-28T03:44:31.073Z,95818.59
2018-06-28T03:47:00.140Z,95816.52
2018-06-28T03:49:29.300Z,95817.75
2018-06-28T03:51:58.331Z,95817.45
2018-06-28T03:57:05.239Z,95811.88
2018-06-28T03:59:34.315Z,95813.69
2018-06-28T04:02:04.331Z,95811.78
2018-06-28T04:04:33.395Z,95814.95
2018-06-28T04:07:02.602Z,95810.35
2018-06-28T04:09:31.924Z,95807.95
2018-06-28T04:14:36.904Z,95812.05
2018-06-28T04:17:05.977Z,95810.63
2018-06-28T04:19:35.035Z,95812.08
2018-06-28T04:22:04.083Z,95813.39
2018-06-28T04:24:33.191Z,95814.94
2018-06-28T04:27:02.244Z,95813.30
2018-06-28T04:32:08.559Z,95810.80
2018-06-28T04:34:37.715Z,95811.55
2018-06-28T04:37:06.824Z,95811.36
2018-06-28T04:39:36.789Z,95814.27
2018-06-28T04:42:07.841Z,95813.48
2018-06-28T04:44:37.986Z,95814.58
2018-06-28T04:47:09.246Z,95816.71
2018-06-28T04:49:39.225Z,95812.56
2018-06-28T04:52:08.289Z,95813.94
2018-06-28T04:54:37.355Z,95813.80
2018-06-28T04:57:06.541Z,95810.64
2018-06-28T05:02:13.325Z,95815.00
2018-06-28T05:04:43.349Z,95814.66
2018-06-28T05:09:48.138Z,95812.80
2018-06-28T05:12:17.342Z,95810.09
2018-06-28T05:14:46.425Z,95805.53
2018-06-28T05:17:15.498Z,95811.67
2018-06-28T05:19:44.565Z,95813.50
2018-06-28T05:22:13.857Z,95814.08
2018-06-28T05:24:42.922Z,95809.78
2018-06-28T05:27:12.002Z,95801.41
2018-06-28T05:29:41.209Z,95804.03
2018-06-28T05:34:45.981Z,95798.45
2018-06-28T05:39:50.739Z,95800.80
2018-06-28T05:42:20.258Z,95803.58
2018-06-28T05:47:30.810Z,95799.04
2018-06-28T05:50:00.873Z,95795.66
2018-06-28T05:52:41.028Z,95794.19
2018-06-28T05:55:10.417Z,95791.70
2018-06-28T05:57:39.469Z,95794.69
2018-06-28T06:03:11.350Z,95795.33
2018-06-28T06:05:40.416Z,95800.91
2018-06-28T06:08:09.481Z,95807.81
2018-06-28T06:10:38.541Z,95807.67
2018-06-28T06:15:43.316Z,95804.84
2018-06-28T06:18:15.792Z,95807.97
2018-06-28T06:20:48.462Z,95810.09
2018-06-28T06:23:35.037Z,95802.84
2018-06-28T06:26:12.468Z,95799.66
2018-06-28T06:28:51.168Z,95798.64
2018-06-28T06:31:25.934Z,95802.73
2018-06-28T06:33:55.919Z,95801.02
2018-06-28T06:36:25.200Z,95793.94
2018-06-28T06:38:57.454Z,95792.83
2018-06-28T06:41:27.922Z,95793.60
2018-06-28T06:44:12.434Z,95792.34
2018-06-28T06:46:42.002Z,95796.22
2018-06-28T06:49:16.053Z,95792.31
2018-06-28T06:54:35.369Z,95783.64
2018-06-28T06:57:04.471Z,95779.94
2018-06-28T07:02:09.237Z,95780.72
2018-06-28T07:04:38.306Z,95781.36
2018-06-28T07:07:07.581Z,95781.55
2018-06-28T07:09:36.801Z,95781.72
2018-06-28T07:12:07.845Z,95773.84
2018-06-28T07:14:36.885Z,95769.71
2018-06-28T07:17:06.159Z,95770.37
2018-06-28T07:19:39.122Z,95766.38
2018-06-28T07:22:08.590Z,95772.34
2018-06-28T07:27:13.448Z,95769.44
2018-06-28T07:29:45.888Z,95766.33
2018-06-28T07:32:14.937Z,95762.09
2018-06-28T07:34:47.269Z,95761.39
2018-06-28T07:39:52.030Z,95762.92
2018-06-28T07:42:24.281Z,95760.29
2018-06-28T07:44:58.503Z,95760.55
2018-06-28T07:50:17.370Z,95765.90
2018-06-28T07:55:22.186Z,95766.73
2018-06-28T07:57:59.834Z,95767.30
2018-06-28T08:00:32.652Z,95767.88
2018-06-28T08:03:10.890Z,95768.52
2018-06-28T08:05:39.970Z,95769.01
2018-06-28T08:08:10.050Z,95775.60
2018-06-28T08:10:41.080Z,95769.33
2018-06-28T08:15:56.028Z,95778.72
2018-06-28T08:18:38.824Z,95779.14
2018-06-28T08:23:56.178Z,95779.82
2018-06-28T08:26:25.237Z,95788.66
2018-06-28T08:34:09.147Z,95788.82
2018-06-28T08:36:38.215Z,95791.89
2018-06-28T08:41:45.113Z,95792.09
2018-06-28T08:44:21.285Z,95788.53
2018-06-28T08:46:59.143Z,95790.56
2018-06-28T08:49:40.015Z,95794.35
2018-06-28T08:52:13.002Z,95799.93
2018-06-28T08:54:42.067Z,95802.81
2018-06-28T08:57:11.894Z,95801.52
2018-06-28T08:59:40.957Z,95787.30
2018-06-28T09:02:10.014Z,95785.83
2018-06-28T09:04:39.126Z,95786.84
2018-06-28T09:07:08.286Z,95787.33
2018-06-28T09:09:37.346Z,95787.34
2018-06-28T09:12:06.406Z,95783.31
2018-06-28T09:14:35.465Z,95786.52
2018-06-28T09:17:04.537Z,95780.89
2018-06-28T09:22:24.934Z,95785.02
2018-06-28T09:27:29.869Z,95799.68
2018-06-28T09:29:59.865Z,95799.62
2018-06-28T09:32:39.860Z,95796.72
2018-06-28T09:40:20.479Z,95774.72
2018-06-28T09:42:49.537Z,95769.33
2018-06-28T09:45:29.609Z,95769.02
2018-06-28T09:48:02.378Z,95762.12
2018-06-28T09:50:31.729Z,95765.77
2018-06-28T09:53:04.189Z,95763.14
2018-06-28T09:55:37.752Z,95753.89
2018-06-28T10:00:56.802Z,95743.88
2018-06-28T10:03:29.959Z,95744.60
2018-06-28T10:06:09.757Z,95742.68
2018-06-28T10:13:54.059Z,95740.52
2018-06-28T10:16:24.975Z,95741.75
2018-06-28T10:18:54.015Z,95743.44
2018-06-28T10:21:27.401Z,95742.50
2018-06-28T10:24:07.334Z,95746.23
2018-06-28T10:31:47.875Z,95731.05
2018-06-28T10:36:53.898Z,95731.16
2018-06-28T10:39:24.318Z,95739.72
2018-06-28T10:41:53.447Z,95743.69
2018-06-28T10:44:22.517Z,95737.80
2018-06-28T10:46:51.765Z,95735.03
2018-06-28T10:49:20.853Z,95740.37
2018-06-28T10:51:49.913Z,95731.88
2018-06-28T10:54:47.415Z,95731.01
2018-06-28T10:57:25.954Z,95732.98
2018-06-28T10:59:56.375Z,95734.43
2018-06-28T11:02:25.513Z,95733.34
2018-06-28T11:04:55.942Z,95731.55
2018-06-28T11:07:25.060Z,95729.84
2018-06-28T11:09:55.614Z,95729.12
2018-06-28T11:12:42.144Z,95729.73
2018-06-28T11:15:13.149Z,95725.06
2018-06-28T11:17:44.122Z,95722.72
2018-06-28T11:22:49.143Z,95718.59
2018-06-28T11:27:56.112Z,95716.85
2018-06-28T11:30:26.274Z,95720.60
2018-06-28T11:35:31.036Z,95713.17
2018-06-28T11:38:01.153Z,95710.23
2018-06-28T11:40:30.240Z,95705.31
2018-06-28T11:43:01.293Z,95705.28
2018-06-28T11:45:31.259Z,95697.61
2018-06-28T11:48:00.321Z,95695.55
2018-06-28T11:53:05.239Z,95692.43
2018-06-28T11:55:37.668Z,95687.51
2018-06-28T11:58:06.745Z,95689.27
2018-06-28T12:00:36.925Z,95687.94
2018-06-28T12:03:05.971Z,95685.27
2018-06-28T12:05:37.046Z,95679.67
2018-06-28T12:10:41.770Z,95672.86
2018-06-28T12:13:11.761Z,95666.34
2018-06-28T12:15:40.810Z,95671.59
2018-06-28T12:18:11.814Z,95671.81
2018-06-28T12:20:42.091Z,95663.58
2018-06-28T12:23:11.151Z,95663.20
2018-06-28T12:25:40.218Z,95661.38
2018-06-28T12:30:45.003Z,95663.34
2018-06-28T12:33:14.073Z,95656.48
2018-06-28T12:35:43.146Z,95650.73
2018-06-28T12:38:12.343Z,95658.39
2018-06-28T12:40:41.375Z,95654.11
2018-06-28T12:43:11.389Z,95654.18
2018-06-28T12:45:40.449Z,95651.56
2018-06-28T12:48:09.514Z,95647.65
2018-06-28T12:50:42.673Z,95645.96
2018-06-28T12:53:12.631Z,95653.77
2018-06-28T12:55:42.634Z,95649.86
2018-06-28T12:58:11.707Z,95648.93
2018-06-28T13:00:40.944Z,95642.20
2018-06-28T13:03:10.949Z,95644.89
2018-06-28T13:08:16.014Z,95640.63
2018-06-28T13:10:47.139Z,95640.91
2018-06-28T13:13:16.175Z,95638.68
2018-06-28T13:15:52.985Z,95635.84
2018-06-28T13:18:22.297Z,95632.25
2018-06-28T13:20:50.984Z,95633.19
2018-06-28T13:23:19.902Z,95629.25
2018-06-28T13:25:48.441Z,95629.20
2018-06-28T13:28:16.976Z,95626.36
2018-06-28T13:30:45.636Z,95625.66
2018-06-28T13:33:17.915Z,95625.30
2018-06-28T13:35:53.852Z,95625.14
2018-06-28T13:38:22.721Z,95622.58
2018-06-28T13:41:05.112Z,95618.78
2018-06-28T13:43:38.913Z,95612.48
2018-06-28T13:46:07.562Z,95613.23
2018-06-28T13:48:36.412Z,95613.40
2018-06-28T13:51:04.955Z,95614.26
2018-06-28T13:53:36.975Z,95612.86
2018-06-28T13:56:05.504Z,95604.91
2018-06-28T13:58:58.643Z,95604.56
2018-06-28T14:01:32.510Z,95601.95
2018-06-28T14:04:01.044Z,95595.34
2018-06-28T14:06:31.520Z,95595.52
2018-06-28T14:09:00.210Z,95587.78
2018-06-28T14:11:29.725Z,95585.22
2018-06-28T14:13:58.271Z,95587.63
2018-06-28T14:16:37.818Z,95591.45
2018-06-28T14:19:07.506Z,95585.86
2018-06-28T14:21:36.027Z,95584.06
2018-06-28T14:24:05.472Z,95583.61
2018-06-28T14:26:34.116Z,95583.52
2018-06-28T14:29:02.644Z,95583.01
2018-06-28T14:31:31.183Z,95574.73
2018-06-28T14:34:03.284Z,95572.87
2018-06-28T14:36:32.005Z,95572.53
2018-06-28T14:39:00.660Z,95565.78
2018-06-28T14:41:31.921Z,95558.91
2018-06-28T14:44:39.009Z,95558.95
2018-06-28T14:47:07.971Z,95560.22
2018-06-28T14:49:38.463Z,95558.67
2018-06-28T14:52:16.129Z,95566.50
2018-06-28T14:54:45.059Z,95568.33
2018-06-28T14:57:15.577Z,95573.84
2018-06-28T14:59:54.399Z,95571.81
2018-06-28T15:02:23.375Z,95563.05
2018-06-28T15:04:52.530Z,95552.08
2018-06-28T15:07:24.009Z,95556.58
2018-06-28T15:09:55.854Z,95554.66
2018-06-28T15:12:32.513Z,95552.83
2018-06-28T15:15:09.314Z,95553.86
2018-06-28T15:17:45.391Z,95554.19
2018-06-28T15:20:14.405Z,95548.45
2018-06-28T15:22:43.136Z,95544.45
2018-06-28T15:25:18.563Z,95546.06
2018-06-28T15:27:56.005Z,95551.20
2018-06-28T15:30:29.092Z,95542.80
2018-06-28T15:33:05.526Z,95549.37
2018-06-28T15:35:52.536Z,95543.88
2018-06-28T15:38:22.179Z,95537.48
2018-06-28T15:41:19.173Z,95538.20
2018-06-28T15:43:56.338Z,95535.05
2018-06-28T15:46:28.320Z,95541.38
2018-06-28T15:52:37.295Z,95541.91
2018-06-28T15:55:07.442Z,95532.67
2018-06-28T15:57:37.242Z,95534.05
2018-06-28T16:00:12.546Z,95532.86
2018-06-28T16:02:45.294Z,95527.85
2018-06-28T16:05:21.878Z,95523.56
2018-06-28T16:07:56.125Z,95521.71
2018-06-28T16:10:24.674Z,95521.05
2018-06-28T16:13:02.768Z,95520.69
2018-06-28T16:15:40.259Z,95515.09
2018-06-28T16:18:51.544Z,95520.81
2018-06-28T16:21:22.392Z,95517.78
2018-06-28T16:23:56.547Z,95515.98
2018-06-28T16:26:28.770Z,95514.21
2018-06-28T16:28:59.810Z,95511.19
2018-06-28T16:31:29.406Z,95510.27
2018-06-28T16:34:04.537Z,95507.05
2018-06-28T16:36:33.626Z,95506.84
2018-06-28T16:39:17.485Z,95505.02
2018-06-28T16:42:04.624Z,95504.08
2018-06-28T16:44:40.901Z,95496.37
2018-06-28T16:47:11.144Z,95498.20
2018-06-28T16:49:50.357Z,95495.55
2018-06-28T16:52:52.588Z,95504.09
2018-06-28T16:55:21.578Z,95496.33
2018-06-28T16:57:50.182Z,95505.32
2018-06-28T17:00:18.873Z,95497.22
2018-06-28T17:02:47.433Z,95492.29
2018-06-28T17:05:15.987Z,95491.21
2018-06-28T17:07:46.465Z,95488.39
2018-06-28T17:11:06.740Z,95489.45
2018-06-28T17:13:35.280Z,95492.02
2018-06-28T17:16:04.007Z,95491.55
2018-06-28T17:18:33.553Z,95492.80
2018-06-28T17:21:02.085Z,95490.30
2018-06-28T17:23:38.712Z,95487.88
2018-06-28T17:26:07.381Z,95491.11
2018-06-28T17:28:35.912Z,95491.68
2018-06-28T17:31:08.296Z,95488.12
2018-06-28T17:33:36.804Z,95491.53
2018-06-28T17:36:29.842Z,95484.08
2018-06-28T17:39:06.066Z,95489.37
2018-06-28T17:41:34.601Z,95489.34
2018-06-28T17:44:16.491Z,95489.87
2018-06-28T17:47:04.303Z,95484.79
2018-06-28T17:49:32.894Z,95484.09
2018-06-28T17:52:02.357Z,95491.77
2018-06-28T17:54:30.910Z,95492.92
2018-06-28T17:57:04.666Z,95492.48
2018-06-28T17:59:33.204Z,95495.35
2018-06-28T18:02:01.748Z,95493.55
2018-06-28T18:04:30.306Z,95491.76
2018-06-28T18:06:58.824Z,95491.55
2018-06-28T18:09:28.416Z,95489.84
2018-06-28T18:11:56.948Z,95491.29
2018-06-28T18:14:52.016Z,95494.25
2018-06-28T18:17:20.541Z,95490.77
2018-06-28T18:19:49.132Z,95491.44
2018-06-28T18:22:18.673Z,95490.80
2018-06-28T18:24:47.284Z,95493.55
2018-06-28T18:27:15.803Z,95491.60
2018-06-28T18:29:44.329Z,95493.56
2018-06-28T18:32:12.873Z,95493.17
2018-06-28T18:34:41.421Z,95490.88
2018-06-28T18:37:09.940Z,95490.22
2018-06-28T18:39:38.485Z,95489.07
2018-06-28T18:42:07.992Z,95484.70
2018-06-28T18:44:36.596Z,95487.25
2018-06-28T18:47:05.133Z,95492.36
2018-06-28T18:49:33.827Z,95492.51
2018-06-28T18:52:02.403Z,95486.36
2018-06-28T18:54:32.912Z,95489.62
2018-06-28T18:57:02.394Z,95490.96
2018-06-28T18:59:30.920Z,95489.42
2018-06-28T19:01:59.573Z,95491.84
2018-06-28T19:04:28.093Z,95497.88
2018-06-28T19:06:56.629Z,95493.80
2018-06-28T19:09:25.176Z,95494.64
2018-06-28T19:11:53.786Z,95496.61
2018-06-28T19:14:22.415Z,95495.38
2018-06-28T19:16:54.861Z,95496.50
2018-06-28T19:19:23.372Z,95496.77
2018-06-28T19:24:50.271Z,95499.53
2018-06-28T19:27:18.810Z,95501.86
2018-06-28T19:29:47.418Z,95500.02
2018-06-28T19:32:35.759Z,95503.86
2018-06-28T19:35:11.393Z,95503.20
2018-06-28T19:37:39.949Z,95504.19
2018-06-28T19:43:04.819Z,95500.88
2018-06-28T19:45:37.980Z,95508.72
2018-06-28T19:48:06.497Z,95503.23
2018-06-28T19:50:49.368Z,95509.70
2018-06-28T19:53:17.908Z,95513.73
2018-06-28T19:55:50.941Z,95516.16
2018-06-28T19:58:19.483Z,95512.59
2018-06-28T20:00:53.204Z,95514.27
2018-06-28T20:06:26.680Z,95512.64
2018-06-28T20:08:55.236Z,95513.39
2018-06-28T20:11:23.771Z,95511.63
2018-06-28T20:16:58.548Z,95510.48
2018-06-28T20:22:27.369Z,95510.16
2018-06-28T20:24:55.944Z,95513.04
2018-06-28T20:30:28.846Z,95515.36
2018-06-28T20:33:06.600Z,95515.41
2018-06-28T20:35:35.171Z,95514.94
2018-06-28T20:38:13.630Z,95523.39
2018-06-28T20:40:42.215Z,95521.20
2018-06-28T20:43:10.756Z,95527.45
2018-06-28T20:45:40.333Z,95532.33
2018-06-28T20:48:08.862Z,95534.88
2018-06-28T20:50:37.404Z,95536.77
2018-06-28T20:53:05.924Z,95538.98
2018-06-28T20:55:35.520Z,95539.02
2018-06-28T20:58:04.108Z,95539.50
2018-06-28T21:00:34.638Z,95538.52
2018-06-28T21:03:11.368Z,95535.52
2018-06-28T21:05:47.853Z,95536.25
2018-06-28T21:08:16.396Z,95536.63
2018-06-28T21:10:46.870Z,95535.87
2018-06-28T21:13:15.492Z,95529.74
2018-06-28T21:15:48.697Z,95527.82
2018-06-28T21:18:17.256Z,95526.27
2018-06-28T21:20:45.789Z,95526.78
2018-06-28T21:23:14.335Z,95531.78
2018-06-28T21:25:42.885Z,95531.52
2018-06-28T21:28:11.416Z,95536.22
2018-06-28T21:30:41.892Z,95543.20
2018-06-28T21:33:10.463Z,95545.81
2018-06-28T21:35:42.532Z,95539.78
2018-06-28T21:38:13.019Z,95540.48
2018-06-28T21:40:41.557Z,95540.52
2018-06-28T21:43:10.080Z,95545.34
2018-06-28T21:45:38.607Z,95540.70
2018-06-28T21:48:07.225Z,95543.51
2018-06-28T21:50:36.745Z,95545.81
2018-06-28T21:53:05.280Z,95547.77
2018-06-28T21:55:34.820Z,95548.55
2018-06-28T21:58:03.409Z,95545.88
2018-06-28T22:00:31.974Z,95541.66
2018-06-28T22:03:08.112Z,95541.56
2018-06-28T22:05:36.665Z,95545.81
2018-06-28T22:08:05.233Z,95546.77
2018-06-28T22:10:33.752Z,95538.84
2018-06-28T22:13:02.284Z,95533.09
2018-06-28T22:15:31.814Z,95534.78
2018-06-28T22:18:04.035Z,95529.59
2018-06-28T22:20:32.661Z,95529.06
2018-06-28T22:23:08.577Z,95529.14
2018-06-28T22:25:37.116Z,95533.28
2018-06-28T22:28:09.924Z,95529.48
2018-06-28T22:30:41.906Z,95525.97
2018-06-28T22:33:10.593Z,95525.36
2018-06-28T22:35:42.240Z,95532.42
2018-06-28T22:38:10.832Z,95530.22
2018-06-28T22:40:40.341Z,95530.98
2018-06-28T22:43:10.936Z,95535.33
2018-06-28T22:45:39.460Z,95530.70
2018-06-28T22:48:08.014Z,95530.48
2018-06-28T22:50:37.548Z,95529.48
2018-06-28T22:53:06.529Z,95527.90
2018-06-28T22:55:40.448Z,95525.56
2018-06-28T22:58:08.983Z,95525.36
2018-06-28T23:00:41.860Z,95523.55
2018-06-28T23:03:13.820Z,95521.73
2018-06-28T23:05:42.347Z,95525.34
2018-06-28T23:08:10.884Z,95531.09
2018-06-28T23:10:40.380Z,95532.56
2018-06-28T23:13:08.910Z,95535.84
2018-06-28T23:15:37.462Z,95529.13
2018-06-28T23:18:06.004Z,95524.38
2018-06-28T23:20:34.546Z,95523.62
2018-06-28T23:23:03.109Z,95517.62
2018-06-28T23:25:31.727Z,95513.70
2018-06-28T23:28:00.241Z,95515.05
2018-06-28T23:30:28.783Z,95514.81
2018-06-28T23:32:57.331Z,95513.03
2018-06-28T23:35:27.800Z,95514.23
2018-06-28T23:37:56.339Z,95521.39
2018-06-28T23:40:36.141Z,95517.52
2018-06-28T23:43:04.686Z,95514.50
2018-06-28T23:45:36.589Z,95511.63
2018-06-28T23:48:05.171Z,95509.70
2018-06-28T23:50:33.893Z,95506.44
2018-06-28T23:53:02.633Z,95501.02
2018-06-28T23:55:31.179Z,95501.73
2018-06-28T23:58:02.816Z,95502.22
